createdAt,value
2022-12-20T05:13:50.278Z,-87
2022-12-20T05:16:21.788Z,-86
2022-12-20T05:18:50.037Z,-86
2022-12-20T05:21:36.769Z,-86
2022-12-20T05:24:22.875Z,-87
2022-12-20T05:26:51.118Z,-88
2022-12-20T05:29:20.727Z,-87
2022-12-20T05:31:48.901Z,-86
2022-12-20T05:34:17.065Z,-87
2022-12-20T05:36:45.379Z,-87
2022-12-20T05:39:13.618Z,-88
2022-12-20T05:41:41.837Z,-88
2022-12-20T05:44:10.251Z,-86
2022-12-20T05:46:39.708Z,-87
2022-12-20T05:49:08.148Z,-87
2022-12-20T05:51:36.531Z,-88
2022-12-20T05:54:04.833Z,-87
2022-12-20T05:56:32.906Z,-87
2022-12-20T05:59:01.004Z,-87
2022-12-20T06:01:30.840Z,-88
2022-12-20T06:04:00.463Z,-87
2022-12-20T06:06:28.661Z,-86
2022-12-20T06:09:02.901Z,-88
2022-12-20T06:11:43.147Z,-87
2022-12-20T06:14:12.551Z,-88
2022-12-20T06:16:40.710Z,-86
2022-12-20T06:19:13.499Z,-87
2022-12-20T06:21:44.395Z,-88
2022-12-20T06:24:12.531Z,-88
2022-12-20T06:26:40.625Z,-87
2022-12-20T06:29:10.321Z,-88
2022-12-20T06:31:38.469Z,-87
2022-12-20T06:34:07.056Z,-86
2022-12-20T06:36:36.653Z,-86
2022-12-20T06:39:09.663Z,-87
2022-12-20T06:41:38.404Z,-88
2022-12-20T06:44:06.769Z,-88
2022-12-20T06:46:35.324Z,-88
2022-12-20T06:49:03.479Z,-87
2022-12-20T06:51:31.543Z,-86
2022-12-20T06:54:01.108Z,-87
2022-12-20T06:56:29.316Z,-88
2022-12-20T06:58:59.490Z,-88
2022-12-20T07:01:27.798Z,-88
2022-12-20T07:03:56.209Z,-88
2022-12-20T07:06:24.432Z,-86
2022-12-20T07:08:52.653Z,-86
2022-12-20T07:11:22.294Z,-87
2022-12-20T07:13:52.496Z,-84
2022-12-20T07:16:20.954Z,-87
2022-12-20T07:18:58.903Z,-88
2022-12-20T07:21:27.108Z,-88
2022-12-20T07:23:56.823Z,-87
2022-12-20T07:26:26.326Z,-86
2022-12-20T07:28:55.163Z,-88
2022-12-20T07:31:23.286Z,-87
2022-12-20T07:33:52.269Z,-87
2022-12-20T07:36:20.396Z,-87
2022-12-20T07:38:49.153Z,-87
2022-12-20T07:41:56.685Z,-88
2022-12-20T07:45:28.071Z,-87
2022-12-20T07:48:03.267Z,-87
2022-12-20T07:50:36.410Z,-87
2022-12-20T07:53:07.393Z,-87
2022-12-20T07:55:36.613Z,-87
2022-12-20T07:58:08.124Z,-87
2022-12-20T08:00:36.796Z,-88
2022-12-20T08:03:08.875Z,-88
2022-12-20T08:05:38.797Z,-88
2022-12-20T08:08:07.212Z,-88
2022-12-20T08:10:51.156Z,-88
2022-12-20T08:13:57.276Z,-87
2022-12-20T08:16:26.748Z,-87
2022-12-20T08:18:54.941Z,-87
2022-12-20T08:21:23.050Z,-87
2022-12-20T08:23:52.052Z,-87
2022-12-20T08:26:20.357Z,-88
2022-12-20T08:28:48.411Z,-87
2022-12-20T08:31:18.087Z,-87
2022-12-20T08:33:46.178Z,-88
2022-12-20T08:36:15.085Z,-88
2022-12-20T08:38:43.492Z,-87
2022-12-20T08:41:13.569Z,-90
2022-12-20T08:43:42.402Z,-87
2022-12-20T08:46:12.219Z,-87
2022-12-20T08:48:42.135Z,-81
2022-12-20T08:51:12.069Z,-82
2022-12-20T08:53:41.083Z,-82
2022-12-20T08:56:11.337Z,-83
2022-12-20T08:58:39.933Z,-83
2022-12-20T09:01:09.425Z,-82
2022-12-20T09:03:38.686Z,-81
2022-12-20T09:06:10.397Z,-82
2022-12-20T09:08:39.622Z,-84
2022-12-20T09:11:11.978Z,-82
2022-12-20T09:13:43.994Z,-81
2022-12-20T09:16:14.070Z,-82
2022-12-20T09:18:42.537Z,-82
2022-12-20T09:21:12.933Z,-82
2022-12-20T09:23:41.304Z,-82
2022-12-20T09:26:11.973Z,-82
2022-12-20T09:28:40.499Z,-82
2022-12-20T09:31:11.184Z,-81
2022-12-20T09:33:39.323Z,-82
2022-12-20T09:36:11.867Z,-82
2022-12-20T09:38:41.367Z,-82
2022-12-20T09:41:22.796Z,-82
2022-12-20T09:43:51.252Z,-82
2022-12-20T09:46:19.713Z,-82
2022-12-20T09:48:48.415Z,-83
2022-12-20T09:51:41.386Z,-82
2022-12-20T09:54:19.470Z,-82
2022-12-20T09:56:57.136Z,-83
2022-12-20T09:59:25.504Z,-82
2022-12-20T10:01:53.922Z,-81
2022-12-20T10:04:24.680Z,-84
2022-12-20T10:07:11.954Z,-85
2022-12-20T10:09:55.897Z,-84
2022-12-20T10:12:31.237Z,-85
2022-12-20T10:15:22.174Z,-85
2022-12-20T10:18:13.930Z,-86
2022-12-20T10:20:48.295Z,-86
2022-12-20T10:23:27.914Z,-86
2022-12-20T10:26:02.439Z,-86
2022-12-20T10:28:32.371Z,-86
2022-12-20T10:31:02.347Z,-86
2022-12-20T10:33:31.515Z,-86
2022-12-20T10:36:21.377Z,-85
2022-12-20T10:38:51.191Z,-84
2022-12-20T10:41:23.816Z,-86
2022-12-20T10:43:56.361Z,-85
2022-12-20T10:46:25.416Z,-86
2022-12-20T10:48:53.546Z,-84
2022-12-20T10:51:23.908Z,-84
2022-12-20T10:53:57.828Z,-85
2022-12-20T10:56:29.064Z,-83
2022-12-20T10:58:59.522Z,-85
2022-12-20T11:01:30.718Z,-84
2022-12-20T11:04:01.511Z,-86
2022-12-20T11:06:41.457Z,-84
2022-12-20T11:09:30.634Z,-85
2022-12-20T11:12:02.304Z,-85
2022-12-20T11:14:38.633Z,-85
2022-12-20T11:17:20.407Z,-84
2022-12-20T11:20:09.342Z,-83
2022-12-20T11:22:46.831Z,-84
2022-12-20T11:25:35.730Z,-83
2022-12-20T11:28:21.901Z,-84
2022-12-20T11:30:55.605Z,-84
2022-12-20T11:33:38.368Z,-84
2022-12-20T11:36:10.431Z,-85
2022-12-20T11:38:43.485Z,-85
2022-12-20T11:41:20.437Z,-85
2022-12-20T11:47:08.004Z,-84
2022-12-20T11:49:54.471Z,-84
2022-12-20T11:52:30.820Z,-84
2022-12-20T11:55:05.674Z,-83
2022-12-20T11:58:02.054Z,-83
2022-12-20T12:00:35.404Z,-84
2022-12-20T12:03:10.550Z,-84
2022-12-20T12:05:47.172Z,-82
2022-12-20T12:08:20.133Z,-82
2022-12-20T12:10:55.301Z,-82
2022-12-20T12:13:27.402Z,-81
2022-12-20T12:16:02.108Z,-82
2022-12-20T12:18:32.161Z,-88
2022-12-20T12:21:09.044Z,-85
2022-12-20T12:23:45.651Z,-85
2022-12-20T12:26:21.657Z,-82
2022-12-20T12:28:55.194Z,-81
2022-12-20T12:31:30.232Z,-81
2022-12-20T12:34:06.769Z,-79
2022-12-20T12:37:12.723Z,-79
2022-12-20T12:40:04.105Z,-80
2022-12-20T12:43:25.996Z,-79
2022-12-20T12:45:57.821Z,-81
2022-12-20T12:48:36.746Z,-81
2022-12-20T12:51:05.654Z,-80
2022-12-20T12:53:37.337Z,-81
2022-12-20T12:56:47.267Z,-79
2022-12-20T12:59:38.878Z,-80
2022-12-20T13:02:28.763Z,-80
2022-12-20T13:05:01.049Z,-80
2022-12-20T13:07:32.041Z,-80
2022-12-20T13:10:00.821Z,-80
2022-12-20T13:12:56.903Z,-79
2022-12-20T13:15:53.452Z,-79
2022-12-20T13:18:30.642Z,-80
2022-12-20T13:21:32.321Z,-80
2022-12-20T13:24:40.958Z,-79
2022-12-20T13:27:34.133Z,-81
2022-12-20T13:30:27.302Z,-81
2022-12-20T13:33:26.671Z,-82
2022-12-20T13:36:00.361Z,-81
2022-12-20T13:38:54.656Z,-80
2022-12-20T13:41:38.560Z,-80
2022-12-20T13:44:30.495Z,-80
2022-12-20T13:47:03.430Z,-79
2022-12-20T13:49:35.767Z,-80
2022-12-20T13:52:27.061Z,-80
2022-12-20T13:54:59.322Z,-80
2022-12-20T13:57:31.115Z,-82
2022-12-20T14:00:06.589Z,-82
2022-12-20T14:02:37.823Z,-80
2022-12-20T14:05:14.404Z,-81
2022-12-20T14:07:43.245Z,-81
2022-12-20T14:10:22.082Z,-82
2022-12-20T14:12:54.308Z,-82
2022-12-20T14:15:24.945Z,-81
2022-12-20T14:17:53.207Z,-82
2022-12-20T14:20:28.071Z,-81
2022-12-20T14:23:04.693Z,-82
2022-12-20T14:25:38.577Z,-78
2022-12-20T14:28:07.367Z,-81
2022-12-20T14:30:38.011Z,-81
2022-12-20T14:33:06.167Z,-80
2022-12-20T14:35:34.340Z,-82
2022-12-20T14:38:04.219Z,-81
2022-12-20T14:40:32.618Z,-82
2022-12-20T14:43:16.223Z,-81
2022-12-20T14:45:44.336Z,-81
2022-12-20T14:48:17.804Z,-81
2022-12-20T14:50:53.475Z,-81
2022-12-20T14:53:24.834Z,-82
2022-12-20T14:55:54.170Z,-82
2022-12-20T14:58:28.996Z,-82
2022-12-20T15:01:00.744Z,-81
2022-12-20T15:03:30.326Z,-81
2022-12-20T15:06:01.251Z,-82
2022-12-20T15:08:40.485Z,-84
2022-12-20T15:11:22.502Z,-84
2022-12-20T15:13:57.392Z,-83
2022-12-20T15:16:27.372Z,-82
2022-12-20T15:18:57.268Z,-83
2022-12-20T15:21:30.409Z,-83
2022-12-20T15:24:00.999Z,-83
2022-12-20T15:26:31.085Z,-83
2022-12-20T15:29:02.728Z,-82
2022-12-20T15:31:34.093Z,-83
2022-12-20T15:34:03.296Z,-83
2022-12-20T15:36:33.544Z,-87
2022-12-20T15:39:16.896Z,-88
2022-12-20T15:41:47.070Z,-87
2022-12-20T15:44:19.356Z,-87
2022-12-20T15:46:48.867Z,-86
2022-12-20T15:49:19.567Z,-86
2022-12-20T15:51:54.493Z,-87
2022-12-20T15:54:27.459Z,-87
2022-12-20T15:56:55.903Z,-87
2022-12-20T15:59:58.495Z,-86
2022-12-20T16:02:21.797Z,-85
2022-12-20T16:04:52.198Z,-85
2022-12-20T16:07:20.687Z,-86
2022-12-20T16:09:48.767Z,-85
2022-12-20T16:12:18.420Z,-86
2022-12-20T16:14:49.337Z,-86
2022-12-20T16:17:20.500Z,-85
2022-12-20T16:19:48.604Z,-85
2022-12-20T16:22:18.076Z,-87
2022-12-20T16:24:46.491Z,-85
2022-12-20T16:27:14.654Z,-85
2022-12-20T16:29:42.715Z,-85
2022-12-20T16:32:16.940Z,-87
2022-12-20T16:34:45.575Z,-86
2022-12-20T16:37:14.218Z,-86
2022-12-20T16:39:42.601Z,-81
2022-12-20T16:42:14.875Z,-84
2022-12-20T16:44:56.565Z,-83
2022-12-20T16:47:31.263Z,-84
2022-12-20T16:50:19.384Z,-82
2022-12-20T16:52:50.536Z,-83
2022-12-20T16:55:22.256Z,-83
2022-12-20T16:57:56.394Z,-84
2022-12-20T17:00:27.078Z,-83
2022-12-20T17:02:59.369Z,-84
2022-12-20T17:05:30.549Z,-85
2022-12-20T17:07:58.758Z,-84
2022-12-20T17:10:27.435Z,-84
2022-12-20T17:12:55.826Z,-84
2022-12-20T17:15:25.253Z,-84
2022-12-20T17:17:54.235Z,-83
2022-12-20T17:20:24.958Z,-83
2022-12-20T17:25:40.428Z,-83
2022-12-20T17:28:08.526Z,-83
2022-12-20T17:30:36.576Z,-82
2022-12-20T17:33:04.852Z,-85
2022-12-20T17:35:34.625Z,-84
2022-12-20T17:38:02.789Z,-83
2022-12-20T17:40:31.957Z,-84
2022-12-20T17:43:00.130Z,-85
2022-12-20T17:45:31.081Z,-83
2022-12-20T17:47:59.360Z,-83
2022-12-20T17:50:27.858Z,-84
2022-12-20T17:52:57.446Z,-83
2022-12-20T17:55:27.213Z,-83
2022-12-20T17:58:02.366Z,-83
2022-12-20T18:00:38.992Z,-83
2022-12-20T18:03:07.929Z,-84
2022-12-20T18:05:36.084Z,-85
2022-12-20T18:08:05.913Z,-83
2022-12-20T18:10:34.260Z,-83
2022-12-20T18:13:02.297Z,-81
2022-12-20T18:15:30.329Z,-84
2022-12-20T18:17:58.343Z,-84
2022-12-20T18:20:26.418Z,-83
2022-12-20T18:22:54.476Z,-83
2022-12-20T18:25:23.985Z,-83
2022-12-20T18:27:52.122Z,-84
2022-12-20T18:30:20.377Z,-83
2022-12-20T18:32:48.617Z,-83
2022-12-20T18:35:16.730Z,-84
2022-12-20T18:37:44.868Z,-84
2022-12-20T18:40:13.146Z,-83
2022-12-20T18:42:42.793Z,-83
2022-12-20T18:45:12.582Z,-83
2022-12-20T18:47:40.789Z,-83
2022-12-20T18:50:13.354Z,-84
2022-12-20T18:52:43.173Z,-84
2022-12-20T18:55:12.532Z,-84
2022-12-20T18:57:54.479Z,-83
2022-12-20T19:00:23.545Z,-83
2022-12-20T19:02:51.939Z,-84
2022-12-20T19:05:21.283Z,-83
2022-12-20T19:07:49.413Z,-83
2022-12-20T19:28:52.830Z,-83
2022-12-20T19:31:47.149Z,-83
2022-12-20T19:34:28.534Z,-83
2022-12-20T19:36:57.722Z,-83
2022-12-20T19:39:25.806Z,-83
2022-12-20T19:42:24.593Z,-82
2022-12-20T19:44:41.898Z,-83
2022-12-20T19:47:11.366Z,-81
2022-12-20T19:49:49.485Z,-82
2022-12-20T19:52:19.714Z,-82
2022-12-20T19:54:51.359Z,-83
2022-12-20T19:57:19.555Z,-83
2022-12-20T19:59:50.856Z,-82
2022-12-20T20:02:23.687Z,-81
2022-12-20T20:04:51.888Z,-82
2022-12-20T20:07:20.052Z,-82
2022-12-20T20:09:48.128Z,-82
2022-12-20T20:12:16.232Z,-83
2022-12-20T20:14:45.035Z,-81
2022-12-20T20:17:13.306Z,-80
2022-12-20T20:19:42.830Z,-82
2022-12-20T20:22:23.016Z,-83
2022-12-20T20:24:51.413Z,-82
2022-12-20T20:27:19.631Z,-82
2022-12-20T20:29:50.331Z,-82
2022-12-20T20:32:18.419Z,-83
2022-12-20T20:34:47.932Z,-83
2022-12-20T20:37:16.031Z,-82
2022-12-20T20:39:44.201Z,-82
2022-12-20T20:42:15.845Z,-82
2022-12-20T20:44:46.500Z,-83
2022-12-20T20:47:14.539Z,-83
2022-12-20T20:49:42.588Z,-83
2022-12-20T20:52:12.117Z,-83
2022-12-20T20:54:40.473Z,-83
2022-12-20T20:57:08.513Z,-83
2022-12-20T20:59:40.742Z,-82
2022-12-20T21:02:13.188Z,-82
2022-12-20T21:04:41.436Z,-83
2022-12-20T21:07:10.982Z,-84
2022-12-20T21:09:38.981Z,-85
2022-12-20T21:12:07.411Z,-84
2022-12-20T21:15:12.318Z,-85
2022-12-20T21:17:23.986Z,-87
2022-12-20T21:19:53.373Z,-85
2022-12-20T21:22:29.475Z,-84
2022-12-20T21:25:00.388Z,-84
2022-12-20T21:27:28.636Z,-84
2022-12-20T21:29:56.654Z,-86
2022-12-20T21:32:25.110Z,-84
2022-12-20T21:34:54.273Z,-84
2022-12-20T21:37:22.938Z,-84
2022-12-20T21:39:52.446Z,-85
2022-12-20T21:42:20.680Z,-84
2022-12-20T21:44:48.710Z,-85
2022-12-20T21:47:19.113Z,-84
2022-12-20T21:49:47.591Z,-83
2022-12-20T21:52:16.190Z,-84
2022-12-20T21:54:44.395Z,-77
2022-12-20T21:57:14.238Z,-79
2022-12-20T21:59:42.364Z,-78
2022-12-20T22:02:11.652Z,-78
2022-12-20T22:04:41.065Z,-78
2022-12-20T22:07:09.111Z,-76
2022-12-20T22:09:37.101Z,-80
2022-12-20T22:12:05.398Z,-77
2022-12-20T22:14:34.739Z,-79
2022-12-20T22:17:02.868Z,-78
2022-12-20T22:19:31.084Z,-78
2022-12-20T22:21:59.136Z,-78
2022-12-20T22:24:27.208Z,-78
2022-12-20T22:26:55.220Z,-80
2022-12-20T22:29:23.232Z,-77
2022-12-20T22:31:52.711Z,-78
2022-12-20T22:34:21.333Z,-78
2022-12-20T22:36:49.344Z,-79
2022-12-20T22:39:17.495Z,-77
2022-12-20T22:41:45.591Z,-78
2022-12-20T22:44:13.633Z,-78
2022-12-20T22:46:41.700Z,-78
